createdAt,value
2022-10-28T00:00:31.464Z,100.00
2022-10-28T00:03:01.618Z,100.00
2022-10-28T00:05:29.109Z,100.00
2022-10-28T00:07:55.932Z,100.00
2022-10-28T00:10:22.648Z,100.00
2022-10-28T00:12:49.211Z,100.00
2022-10-28T00:15:15.862Z,100.00
2022-10-28T00:17:42.420Z,100.00
2022-10-28T00:20:09.666Z,100.00
2022-10-28T00:22:36.451Z,100.00
2022-10-28T00:25:03.844Z,100.00
2022-10-28T00:27:31.593Z,100.00
2022-10-28T00:29:58.230Z,100.00
2022-10-28T00:32:24.829Z,100.00
2022-10-28T00:34:51.413Z,100.00
2022-10-28T00:37:18.047Z,100.00
2022-10-28T00:39:44.736Z,100.00
2022-10-28T00:42:12.202Z,100.00
2022-10-28T00:44:56.787Z,100.00
2022-10-28T00:47:35.413Z,100.00
2022-10-28T00:50:14.287Z,100.00
2022-10-28T00:52:42.678Z,100.00
2022-10-28T00:55:09.663Z,100.00
2022-10-28T00:57:38.391Z,100.00
2022-10-28T01:00:07.233Z,100.00
2022-10-28T01:02:42.134Z,100.00
2022-10-28T01:05:10.960Z,100.00
2022-10-28T01:07:37.528Z,100.00
2022-10-28T01:10:04.689Z,100.00
2022-10-28T01:12:31.256Z,100.00
2022-10-28T01:15:03.630Z,100.00
2022-10-28T01:17:54.261Z,100.00
2022-10-28T01:20:48.752Z,100.00
2022-10-28T01:23:38.979Z,100.00
2022-10-28T01:26:24.066Z,100.00
2022-10-28T01:29:29.124Z,100.00
2022-10-28T01:32:00.923Z,100.00
2022-10-28T01:34:31.433Z,100.00
2022-10-28T01:37:10.118Z,100.00
2022-10-28T01:40:06.261Z,100.00
2022-10-28T01:42:50.373Z,100.00
2022-10-28T01:45:29.175Z,100.00
2022-10-28T01:48:05.345Z,100.00
2022-10-28T01:50:51.845Z,100.00
2022-10-28T01:53:24.153Z,100.00
2022-10-28T01:55:53.842Z,100.00
2022-10-28T01:58:25.456Z,100.00
2022-10-28T02:00:52.220Z,100.00
2022-10-28T02:03:18.873Z,100.00
2022-10-28T02:05:48.452Z,100.00
2022-10-28T02:08:18.101Z,100.00
2022-10-28T02:10:56.795Z,100.00
2022-10-28T02:13:36.996Z,100.00
2022-10-28T02:16:38.359Z,100.00
2022-10-28T02:19:27.234Z,100.00
2022-10-28T02:22:13.661Z,100.00
2022-10-28T02:25:06.179Z,100.00
2022-10-28T02:27:49.801Z,100.00
2022-10-28T02:30:28.688Z,100.00
2022-10-28T02:33:02.332Z,100.00
2022-10-28T02:35:37.513Z,100.00
2022-10-28T02:38:10.684Z,100.00
2022-10-28T02:40:39.743Z,100.00
2022-10-28T02:43:10.475Z,100.00
2022-10-28T02:45:43.275Z,100.00
2022-10-28T02:48:33.689Z,100.00
2022-10-28T02:51:10.362Z,100.00
2022-10-28T02:54:00.260Z,100.00
2022-10-28T02:56:28.744Z,100.00
2022-10-28T02:58:55.274Z,100.00
2022-10-28T03:01:21.968Z,100.00
2022-10-28T03:03:48.698Z,100.00
2022-10-28T03:06:15.291Z,100.00
2022-10-28T03:08:42.151Z,100.00
2022-10-28T03:11:08.688Z,100.00
2022-10-28T03:13:35.252Z,100.00
2022-10-28T03:16:01.853Z,100.00
2022-10-28T03:18:28.398Z,100.00
2022-10-28T03:20:58.051Z,100.00
2022-10-28T03:23:25.803Z,100.00
2022-10-28T03:25:52.397Z,100.00
2022-10-28T03:28:18.990Z,100.00
2022-10-28T03:30:45.787Z,100.00
2022-10-28T03:33:12.515Z,100.00
2022-10-28T03:35:39.184Z,100.00
2022-10-28T03:38:05.844Z,100.00
2022-10-28T03:40:32.544Z,100.00
2022-10-28T03:42:59.136Z,100.00
2022-10-28T03:45:25.951Z,100.00
2022-10-28T03:47:52.903Z,100.00
2022-10-28T03:50:19.693Z,100.00
2022-10-28T03:52:46.325Z,100.00
2022-10-28T03:55:13.055Z,100.00
2022-10-28T03:57:39.632Z,100.00
2022-10-28T04:00:06.897Z,100.00
2022-10-28T04:02:33.669Z,100.00
2022-10-28T04:05:00.333Z,100.00
2022-10-28T04:07:27.013Z,100.00
2022-10-28T04:09:53.618Z,100.00
2022-10-28T04:12:21.472Z,100.00
2022-10-28T04:14:48.105Z,100.00
2022-10-28T04:17:14.692Z,100.00
2022-10-28T04:19:41.291Z,100.00
2022-10-28T04:22:09.184Z,100.00
2022-10-28T04:24:35.979Z,100.00
2022-10-28T04:27:02.561Z,100.00
2022-10-28T04:29:29.132Z,100.00
2022-10-28T04:31:55.713Z,100.00
2022-10-28T04:34:22.278Z,100.00
2022-10-28T04:36:48.870Z,100.00
2022-10-28T04:39:15.569Z,100.00
2022-10-28T04:41:42.154Z,100.00
2022-10-28T04:44:08.725Z,100.00
2022-10-28T04:46:35.374Z,100.00
2022-10-28T04:49:02.054Z,100.00
2022-10-28T04:51:28.635Z,100.00
2022-10-28T04:53:55.211Z,100.00
2022-10-28T04:56:21.848Z,100.00
2022-10-28T04:58:48.692Z,100.00
2022-10-28T05:01:15.499Z,100.00
2022-10-28T05:03:42.196Z,100.00
2022-10-28T05:06:08.736Z,100.00
2022-10-28T05:08:35.316Z,100.00
2022-10-28T05:11:01.918Z,100.00
2022-10-28T05:13:29.062Z,100.00
2022-10-28T05:15:55.689Z,100.00
2022-10-28T05:18:22.333Z,100.00
2022-10-28T05:20:52.833Z,100.00
2022-10-28T05:23:19.439Z,100.00
2022-10-28T05:25:45.976Z,100.00
2022-10-28T05:28:13.005Z,100.00
2022-10-28T05:30:39.597Z,100.00
2022-10-28T05:33:06.357Z,100.00
2022-10-28T05:35:33.194Z,100.00
2022-10-28T05:37:59.940Z,100.00
2022-10-28T05:40:26.682Z,100.00
2022-10-28T05:42:53.506Z,100.00
2022-10-28T05:45:20.528Z,100.00
2022-10-28T05:47:48.595Z,100.00
2022-10-28T05:50:16.946Z,100.00
2022-10-28T05:52:48.172Z,100.00
2022-10-28T05:55:15.544Z,100.00
2022-10-28T05:57:42.259Z,100.00
2022-10-28T06:00:09.635Z,100.00
2022-10-28T06:02:36.267Z,100.00
2022-10-28T06:05:02.999Z,100.00
2022-10-28T06:07:30.611Z,100.00
2022-10-28T06:09:57.239Z,100.00
2022-10-28T06:12:22.793Z,100.00
2022-10-28T06:14:49.471Z,100.00
2022-10-28T06:17:16.092Z,100.00
2022-10-28T06:19:42.739Z,100.00
2022-10-28T06:22:10.219Z,100.00
2022-10-28T06:24:36.837Z,100.00
2022-10-28T06:27:03.433Z,100.00
2022-10-28T06:29:32.874Z,100.00
2022-10-28T06:31:59.661Z,100.00
2022-10-28T06:34:26.360Z,100.00
2022-10-28T06:36:53.020Z,100.00
2022-10-28T06:39:19.680Z,100.00
2022-10-28T06:41:46.331Z,100.00
2022-10-28T06:44:12.897Z,100.00
2022-10-28T06:46:41.045Z,100.00
2022-10-28T06:49:09.091Z,100.00
2022-10-28T06:51:35.771Z,100.00
2022-10-28T06:54:02.435Z,100.00
2022-10-28T06:56:29.014Z,100.00
2022-10-28T06:58:56.051Z,100.00
2022-10-28T07:01:22.813Z,100.00
2022-10-28T07:03:49.703Z,100.00
2022-10-28T07:06:17.156Z,100.00
2022-10-28T07:08:43.766Z,100.00
2022-10-28T07:11:10.342Z,100.00
2022-10-28T07:13:37.766Z,100.00
2022-10-28T07:16:05.283Z,100.00
2022-10-28T07:18:32.011Z,100.00
2022-10-28T07:21:00.061Z,100.00
2022-10-28T07:23:26.876Z,100.00
2022-10-28T07:25:55.378Z,100.00
2022-10-28T07:28:24.129Z,100.00
2022-10-28T07:30:51.063Z,100.00
2022-10-28T07:33:17.776Z,100.00
2022-10-28T07:35:44.460Z,100.00
2022-10-28T07:38:11.341Z,100.00
2022-10-28T07:40:38.450Z,100.00
2022-10-28T07:43:05.121Z,100.00
2022-10-28T07:45:31.946Z,100.00
2022-10-28T07:47:58.579Z,100.00
2022-10-28T07:50:25.190Z,100.00
2022-10-28T07:52:52.094Z,100.00
2022-10-28T07:55:21.548Z,100.00
2022-10-28T07:57:49.069Z,100.00
2022-10-28T08:00:16.366Z,100.00
2022-10-28T08:02:42.953Z,100.00
2022-10-28T08:05:09.988Z,100.00
2022-10-28T08:07:38.622Z,100.00
2022-10-28T08:10:07.034Z,100.00
2022-10-28T08:12:33.861Z,100.00
2022-10-28T08:15:00.601Z,100.00
2022-10-28T08:17:27.291Z,100.00
2022-10-28T08:19:53.900Z,100.00
2022-10-28T08:22:20.547Z,100.00
2022-10-28T08:24:47.162Z,100.00
2022-10-28T08:27:13.862Z,100.00
2022-10-28T08:29:40.474Z,100.00
2022-10-28T08:32:09.993Z,100.00
2022-10-28T08:34:39.362Z,100.00
2022-10-28T08:37:09.256Z,100.00
2022-10-28T08:39:35.966Z,100.00
2022-10-28T08:42:27.038Z,100.00
2022-10-28T08:45:16.159Z,99.26
2022-10-28T08:47:52.336Z,100.00
2022-10-28T08:50:22.442Z,99.23
2022-10-28T08:52:56.227Z,100.00
2022-10-28T08:55:37.274Z,99.69
2022-10-28T08:58:09.389Z,98.44
2022-10-28T09:00:36.953Z,97.30
2022-10-28T09:03:34.417Z,94.95
2022-10-28T09:06:08.175Z,94.14
2022-10-28T09:08:42.254Z,94.74
2022-10-28T09:11:34.580Z,97.14
2022-10-28T09:14:23.027Z,96.24
2022-10-28T09:16:51.388Z,95.10
2022-10-28T09:19:50.591Z,98.24
2022-10-28T09:22:25.012Z,100.00
2022-10-28T09:24:59.563Z,98.73
2022-10-28T09:27:32.321Z,96.80
2022-10-28T09:30:17.148Z,94.84
2022-10-28T09:32:48.997Z,94.36
2022-10-28T09:35:20.466Z,94.17
2022-10-28T09:37:59.952Z,95.12
2022-10-28T09:40:31.118Z,92.17
2022-10-28T09:43:09.367Z,91.36
2022-10-28T09:45:41.926Z,87.79
2022-10-28T09:48:24.283Z,88.51
2022-10-28T09:50:54.228Z,85.10
2022-10-28T09:53:23.721Z,84.90
2022-10-28T09:55:51.037Z,84.37
2022-10-28T09:58:18.832Z,84.54
2022-10-28T10:00:45.890Z,82.66
2022-10-28T10:03:12.591Z,81.41
2022-10-28T10:05:44.827Z,80.87
2022-10-28T10:08:15.872Z,80.57
2022-10-28T10:11:00.906Z,80.29
2022-10-28T10:13:35.815Z,78.55
2022-10-28T10:16:12.219Z,78.72
2022-10-28T10:18:46.821Z,76.54
2022-10-28T10:21:14.620Z,75.12
2022-10-28T10:23:41.396Z,73.34
2022-10-28T10:26:12.135Z,73.92
2022-10-28T10:28:48.142Z,75.90
2022-10-28T10:31:27.115Z,75.56
2022-10-28T10:33:58.482Z,74.16
2022-10-28T10:36:31.520Z,73.17
2022-10-28T10:39:03.154Z,72.48
2022-10-28T10:41:36.891Z,70.65
2022-10-28T10:44:22.147Z,73.61
2022-10-28T10:47:13.492Z,71.03
2022-10-28T10:49:40.129Z,69.96
2022-10-28T10:52:16.726Z,69.59
2022-10-28T10:54:56.625Z,69.11
2022-10-28T10:57:25.456Z,69.68
2022-10-28T10:59:54.388Z,68.21
2022-10-28T11:02:39.692Z,65.48
2022-10-28T11:05:10.891Z,62.39
2022-10-28T11:07:48.307Z,60.59
2022-10-28T11:10:27.108Z,60.77
2022-10-28T11:13:00.060Z,59.02
2022-10-28T11:15:29.824Z,57.75
2022-10-28T11:18:17.058Z,55.98
2022-10-28T11:21:09.802Z,55.18
2022-10-28T11:23:56.392Z,54.83
2022-10-28T11:26:24.781Z,55.78
2022-10-28T11:28:57.458Z,56.45
2022-10-28T11:31:49.466Z,53.67
2022-10-28T11:34:42.539Z,52.86
2022-10-28T11:37:24.286Z,49.91
2022-10-28T11:40:13.484Z,50.39
2022-10-28T11:43:20.559Z,51.49
2022-10-28T11:46:08.683Z,53.24
2022-10-28T11:48:53.501Z,51.52
2022-10-28T11:51:50.599Z,50.96
2022-10-28T11:54:44.998Z,51.46
2022-10-28T11:57:17.413Z,51.35
2022-10-28T11:59:49.980Z,51.58
2022-10-28T12:03:15.337Z,53.33
2022-10-28T12:06:10.238Z,53.79
2022-10-28T12:08:58.761Z,50.76
2022-10-28T12:11:45.895Z,49.84
2022-10-28T12:14:22.270Z,48.93
2022-10-28T12:16:58.441Z,48.64
2022-10-28T12:19:37.570Z,48.07
2022-10-28T12:22:15.019Z,49.41
2022-10-28T12:24:46.277Z,48.57
2022-10-28T12:27:19.704Z,47.81
2022-10-28T12:29:52.375Z,46.38
2022-10-28T12:32:29.871Z,46.18
2022-10-28T12:35:08.414Z,45.88
2022-10-28T12:38:01.890Z,45.36
2022-10-28T12:40:36.134Z,44.39
2022-10-28T12:43:40.436Z,46.09
2022-10-28T12:46:19.347Z,44.45
2022-10-28T12:48:50.893Z,45.00
2022-10-28T12:51:31.953Z,44.51
2022-10-28T12:54:16.708Z,44.32
2022-10-28T12:56:50.580Z,44.14
2022-10-28T12:59:46.963Z,44.61
2022-10-28T13:02:26.338Z,44.95
2022-10-28T13:04:53.038Z,43.39
2022-10-28T13:08:05.173Z,43.76
2022-10-28T13:10:42.240Z,44.44
2022-10-28T13:13:20.786Z,45.51
2022-10-28T13:15:50.377Z,44.49
2022-10-28T13:18:33.560Z,45.18
2022-10-28T13:21:31.167Z,43.71
2022-10-28T13:24:18.295Z,43.47
2022-10-28T13:26:46.586Z,44.56
2022-10-28T13:29:30.196Z,44.50
2022-10-28T13:31:56.914Z,44.48
2022-10-28T13:34:36.460Z,44.56
2022-10-28T13:37:06.610Z,45.52
2022-10-28T13:39:36.170Z,45.86
2022-10-28T13:42:23.918Z,46.01
2022-10-28T13:44:50.482Z,45.33
2022-10-28T13:47:17.001Z,45.32
2022-10-28T13:50:05.265Z,46.01
2022-10-28T13:52:33.259Z,46.48
2022-10-28T13:55:22.118Z,48.09
2022-10-28T13:57:52.063Z,47.24
2022-10-28T14:00:23.495Z,48.14
2022-10-28T14:02:50.050Z,46.60
2022-10-28T14:05:26.022Z,46.59
2022-10-28T14:08:03.954Z,46.54
2022-10-28T14:10:35.918Z,46.95
2022-10-28T14:15:49.763Z,47.57
2022-10-28T14:21:05.846Z,48.01
2022-10-28T14:23:32.362Z,48.94
2022-10-28T14:26:02.406Z,49.22
2022-10-28T14:28:29.072Z,49.16
2022-10-28T14:31:42.348Z,48.74
2022-10-28T14:34:11.946Z,49.23
2022-10-28T14:36:46.266Z,48.54
2022-10-28T14:40:11.489Z,50.01
2022-10-28T14:43:04.243Z,50.93
2022-10-28T14:45:48.898Z,51.00
2022-10-28T14:48:50.961Z,51.13
2022-10-28T14:51:21.220Z,51.89
2022-10-28T14:53:48.476Z,52.70
2022-10-28T14:56:27.569Z,53.28
2022-10-28T14:59:12.945Z,54.23
2022-10-28T15:02:01.614Z,55.22
2022-10-28T15:04:30.046Z,56.92
2022-10-28T15:06:57.581Z,60.33
2022-10-28T15:09:28.098Z,64.90
2022-10-28T15:11:59.852Z,68.10
2022-10-28T15:14:33.715Z,71.30
2022-10-28T15:17:11.044Z,72.70
2022-10-28T15:19:38.534Z,74.37
2022-10-28T15:22:23.870Z,77.08
2022-10-28T15:25:04.693Z,79.23
2022-10-28T15:27:33.637Z,80.75
2022-10-28T15:30:00.518Z,83.15
2022-10-28T15:32:35.326Z,85.10
2022-10-28T15:35:40.393Z,85.44
2022-10-28T15:38:53.686Z,88.10
2022-10-28T15:41:23.081Z,89.32
2022-10-28T15:44:02.867Z,91.80
2022-10-28T15:46:32.065Z,94.34
2022-10-28T15:49:01.088Z,94.83
2022-10-28T15:51:28.186Z,96.57
2022-10-28T15:54:12.056Z,93.25
2022-10-28T15:56:55.872Z,97.57
2022-10-28T15:59:24.749Z,99.56
2022-10-28T16:01:52.451Z,99.35
2022-10-28T16:04:19.078Z,100.00
2022-10-28T16:06:46.352Z,100.00
2022-10-28T16:09:38.275Z,100.00
2022-10-28T16:12:12.881Z,100.00
2022-10-28T16:14:43.105Z,100.00
2022-10-28T16:17:23.847Z,100.00
2022-10-28T16:19:55.399Z,100.00
2022-10-28T16:22:24.520Z,100.00
2022-10-28T16:24:52.790Z,100.00
2022-10-28T16:27:25.783Z,100.00
2022-10-28T16:29:52.762Z,100.00
2022-10-28T16:32:28.804Z,100.00
2022-10-28T16:35:01.562Z,100.00
2022-10-28T16:37:30.791Z,100.00
2022-10-28T16:40:00.227Z,100.00
2022-10-28T16:42:27.018Z,100.00
2022-10-28T16:44:53.684Z,100.00
2022-10-28T16:47:22.378Z,100.00
2022-10-28T16:49:52.675Z,100.00
2022-10-28T16:52:28.281Z,100.00
2022-10-28T16:54:55.545Z,100.00
2022-10-28T16:59:54.763Z,100.00
2022-10-28T17:02:31.321Z,100.00
2022-10-28T17:04:58.888Z,100.00
2022-10-28T17:07:26.527Z,100.00
2022-10-28T17:09:53.748Z,100.00
2022-10-28T17:12:24.236Z,100.00
2022-10-28T17:14:51.255Z,100.00
2022-10-28T17:17:17.972Z,100.00
2022-10-28T17:19:45.780Z,100.00
2022-10-28T17:22:13.148Z,100.00
2022-10-28T17:24:39.809Z,100.00
2022-10-28T17:27:07.267Z,100.00
2022-10-28T17:29:34.106Z,100.00
2022-10-28T17:32:00.850Z,100.00
2022-10-28T17:34:27.409Z,100.00
2022-10-28T17:36:54.014Z,100.00
2022-10-28T17:39:25.619Z,100.00
2022-10-28T17:41:53.043Z,100.00
2022-10-28T17:44:19.783Z,100.00
2022-10-28T17:46:48.840Z,100.00
2022-10-28T17:49:15.655Z,100.00
2022-10-28T17:51:42.489Z,100.00
2022-10-28T17:54:09.471Z,100.00
2022-10-28T17:56:36.676Z,100.00
2022-10-28T17:59:04.410Z,100.00
2022-10-28T18:01:33.035Z,100.00
2022-10-28T18:04:00.372Z,100.00
2022-10-28T18:06:27.035Z,100.00
2022-10-28T18:08:53.678Z,100.00
2022-10-28T18:11:21.291Z,100.00
2022-10-28T18:13:52.837Z,100.00
2022-10-28T18:16:22.124Z,100.00
2022-10-28T18:18:48.777Z,100.00
2022-10-28T18:21:15.607Z,100.00
2022-10-28T18:23:42.376Z,100.00
2022-10-28T18:26:14.470Z,100.00
2022-10-28T18:28:42.740Z,100.00
2022-10-28T18:31:18.252Z,100.00
2022-10-28T18:33:45.863Z,100.00
2022-10-28T18:36:21.218Z,100.00
2022-10-28T18:38:48.910Z,100.00
2022-10-28T18:41:20.479Z,100.00
2022-10-28T18:43:47.555Z,100.00
2022-10-28T18:46:15.194Z,100.00
2022-10-28T18:48:41.905Z,100.00
2022-10-28T18:51:11.438Z,100.00
2022-10-28T18:53:43.612Z,100.00
2022-10-28T18:56:22.172Z,100.00
2022-10-28T18:58:49.420Z,100.00
2022-10-28T19:01:18.499Z,100.00
2022-10-28T19:03:45.228Z,100.00
2022-10-28T19:06:14.820Z,100.00
2022-10-28T19:08:41.785Z,100.00
2022-10-28T19:11:10.735Z,100.00
2022-10-28T19:13:39.126Z,100.00
2022-10-28T19:16:06.699Z,100.00
2022-10-28T19:18:35.603Z,100.00
2022-10-28T19:21:04.350Z,100.00
2022-10-28T19:23:34.104Z,100.00
2022-10-28T19:26:00.822Z,100.00
2022-10-28T19:28:27.649Z,100.00
2022-10-28T19:31:02.462Z,100.00
2022-10-28T19:33:32.359Z,100.00
2022-10-28T19:36:04.276Z,100.00
2022-10-28T19:38:37.055Z,100.00
2022-10-28T19:41:08.080Z,100.00
2022-10-28T19:43:35.763Z,100.00
2022-10-28T19:46:10.982Z,100.00
2022-10-28T19:48:39.345Z,100.00
2022-10-28T19:51:07.119Z,100.00
2022-10-28T19:53:34.116Z,100.00
2022-10-28T19:56:03.170Z,100.00
2022-10-28T19:58:30.947Z,100.00
2022-10-28T20:01:04.001Z,100.00
2022-10-28T20:03:34.420Z,100.00
2022-10-28T20:06:07.857Z,100.00
2022-10-28T20:08:39.785Z,100.00
2022-10-28T20:11:08.368Z,100.00
2022-10-28T20:13:36.182Z,100.00
2022-10-28T20:16:10.152Z,100.00
2022-10-28T20:18:37.216Z,100.00
2022-10-28T20:21:16.913Z,100.00
2022-10-28T20:23:45.611Z,100.00
2022-10-28T20:26:13.359Z,100.00
2022-10-28T20:28:40.319Z,100.00
2022-10-28T20:31:11.173Z,100.00
2022-10-28T20:33:40.204Z,100.00
2022-10-28T20:36:22.116Z,100.00
2022-10-28T20:38:52.242Z,100.00
2022-10-28T20:41:18.838Z,100.00
2022-10-28T20:43:50.583Z,100.00
2022-10-28T20:46:20.149Z,100.00
2022-10-28T20:48:47.939Z,100.00
2022-10-28T20:51:14.896Z,100.00
2022-10-28T20:53:41.919Z,100.00
2022-10-28T20:56:23.886Z,100.00
2022-10-28T20:58:50.407Z,100.00
2022-10-28T21:01:28.451Z,100.00
2022-10-28T21:04:00.449Z,100.00
2022-10-28T21:06:27.410Z,100.00
2022-10-28T21:08:55.157Z,100.00
2022-10-28T21:11:23.615Z,100.00
2022-10-28T21:13:52.493Z,100.00
2022-10-28T21:16:19.804Z,100.00
2022-10-28T21:18:46.716Z,100.00
2022-10-28T21:21:13.411Z,100.00
2022-10-28T21:23:40.267Z,100.00
2022-10-28T21:26:08.552Z,100.00
2022-10-28T21:28:35.974Z,100.00
2022-10-28T21:31:08.090Z,100.00
2022-10-28T21:33:36.577Z,100.00
2022-10-28T21:36:09.669Z,100.00
2022-10-28T21:38:36.569Z,100.00
2022-10-28T21:41:18.102Z,100.00
2022-10-28T21:43:50.736Z,100.00
2022-10-28T21:46:19.359Z,100.00
2022-10-28T21:48:46.006Z,100.00
2022-10-28T21:51:16.269Z,100.00
2022-10-28T21:53:44.505Z,100.00
2022-10-28T21:56:17.514Z,100.00
2022-10-28T21:58:45.572Z,100.00
2022-10-28T22:01:15.197Z,100.00
2022-10-28T22:03:41.896Z,100.00
2022-10-28T22:06:08.557Z,100.00
2022-10-28T22:08:35.554Z,100.00
2022-10-28T22:11:23.538Z,100.00
2022-10-28T22:14:01.172Z,100.00
2022-10-28T22:16:29.240Z,100.00
2022-10-28T22:18:57.359Z,100.00
2022-10-28T22:21:26.419Z,100.00
2022-10-28T22:23:53.365Z,100.00
2022-10-28T22:26:22.804Z,100.00
2022-10-28T22:28:50.267Z,100.00
2022-10-28T22:31:20.039Z,100.00
2022-10-28T22:36:21.450Z,100.00
2022-10-28T22:38:48.897Z,100.00
2022-10-28T22:41:21.190Z,100.00
2022-10-28T22:43:59.372Z,100.00
2022-10-28T22:46:31.519Z,100.00
2022-10-28T22:48:58.179Z,100.00
2022-10-28T22:51:25.016Z,100.00
2022-10-28T22:53:51.763Z,100.00
2022-10-28T22:56:20.726Z,100.00
2022-10-28T22:58:48.295Z,100.00
2022-10-28T23:01:19.425Z,100.00
2022-10-28T23:03:48.012Z,100.00
2022-10-28T23:06:16.718Z,100.00
2022-10-28T23:08:47.295Z,100.00
2022-10-28T23:11:15.591Z,100.00
2022-10-28T23:13:42.341Z,100.00
2022-10-28T23:16:14.433Z,100.00
2022-10-28T23:18:41.678Z,100.00
2022-10-28T23:21:17.358Z,100.00
2022-10-28T23:23:49.790Z,100.00
2022-10-28T23:26:19.850Z,100.00
2022-10-28T23:28:50.881Z,100.00
2022-10-28T23:31:17.919Z,100.00
2022-10-28T23:33:44.595Z,100.00
2022-10-28T23:36:13.142Z,100.00
2022-10-28T23:38:39.930Z,100.00
2022-10-28T23:41:09.323Z,100.00
2022-10-28T23:43:36.177Z,100.00
2022-10-28T23:46:02.765Z,100.00
2022-10-28T23:48:29.861Z,100.00
2022-10-28T23:50:56.889Z,100.00
2022-10-28T23:53:23.693Z,100.00
2022-10-28T23:55:51.438Z,100.00
2022-10-28T23:58:19.775Z,100.00
